Flight Track Log - Related Links

Times and Time Zones

All times are in EDT time to prevent confusion due to time zone crossing. See the UAL582 flight status page for this flight to view local times or setup timezone preferences in your user account.


Time Position Orientation Groundspeed Altitude Reporting Facility
EDT Latitude Longitude Course Direction KTS MPH feet Rate Location/Type
Wed 05:18:12 PM 43.6500 -79.6833 235° Southwest 170 196 2,500  Level Toronto Center
Wed 05:19:12 PM 43.6167 -79.7500 235° Southwest 230 265 4,500 2,200 Climbing Toronto Center
Wed 05:20:12 PM 43.6333 -79.8333 285° West 260 299 6,900 1,400 Climbing Toronto Center
Wed 05:21:12 PM 43.6500 -79.9333 283° West 260 299 7,300 1,950 Climbing Toronto Center
Wed 05:22:12 PM 43.6667 -80.0167 285° West 260 299 10,800 2,200 Climbing Toronto Center
Wed 05:23:12 PM 43.6833 -80.1667 279° West 300 345 11,700 1,950 Climbing Toronto Center
Wed 05:24:12 PM 43.7000 -80.2833 281° West 340 391 14,700 2,600 Climbing Toronto Center
Wed 05:25:12 PM 43.7167 -80.4167 280° West 360 414 16,900 2,250 Climbing Toronto Center
Wed 05:26:12 PM 43.7333 -80.5500 280° West 370 426 19,200 1,950 Climbing Toronto Center
Wed 05:27:12 PM 43.7000 -80.7000 253° West 390 449 20,800 1,900 Climbing Toronto Center
Wed 05:28:12 PM 43.6667 -80.8500 253° West 390 449 23,000 1,100 Climbing Toronto Center
Wed 05:29:12 PM 43.6333 -81.0000 253° West 400 460 23,000 300 Level Toronto Center
Wed 05:30:12 PM 43.6000 -81.1500 253° West 410 472 23,600 1,250 Climbing Toronto Center
Wed 05:31:12 PM 43.5667 -81.2833 251° West 420 483 25,500 1,950 Climbing Toronto Center
Wed 05:32:12 PM 43.5333 -81.4500 255° West 410 472 27,500 1,250 Climbing Toronto Center
Wed 05:33:12 PM 43.5000 -81.5833 251° West 410 472 28,000 250 Climbing Toronto Center
Wed 05:34:12 PM 43.4667 -81.7500 255° West 410 472 28,000  Level Toronto Center
Wed 05:35:12 PM 43.4500 -81.8833 260° West 400 460 28,000  Level Toronto Center
Wed 05:36:12 PM 43.4000 -82.0167 243° Southwest 380 437 28,000  Level Toronto Center
Wed 05:37:12 PM 43.3667 -82.1833 255° West 380 437 28,000  Level Toronto Center
Wed 05:38:12 PM 43.3333 -82.3000 249° West 380 437 28,000  Level Toronto Center
Wed 05:39:12 PM 43.3167 -82.4333 260° West 350 403 28,000  Level Toronto Center
Wed 05:39:43 PM 43.3058 -82.5006 258° West 342 394 28,000  Level Cleveland Center
Wed 05:40:45 PM 43.2772 -82.6183 252° West 330 380 28,000  Level Cleveland Center
Wed 05:41:47 PM 43.2356 -82.7306 243° Southwest 346 398 28,000  Level Cleveland Center
Wed 05:42:49 PM 43.1733 -82.8336 230° Southwest 353 406 28,000 -194 Level Cleveland Center
Wed 05:43:51 PM 43.1114 -82.9350 230° Southwest 351 404 27,600 -968 Descending Cleveland Center
Wed 05:44:53 PM 43.0531 -83.0353 231° Southwest 343 395 26,000 -774 Descending Cleveland Center
Wed 05:45:55 PM 43.0331 -83.1797 259° West 323 372 26,000  Level Cleveland Center
Wed 05:46:57 PM 43.0181 -83.3011 260° West 325 374 26,000  Level Cleveland Center
Wed 05:47:59 PM 43.0050 -83.4411 263° West 366 421 26,000  Level Cleveland Center
Wed 05:49:01 PM 42.9903 -83.5814 262° West 376 433 26,000  Level Cleveland Center
Wed 05:50:03 PM 42.9761 -83.7194 262° West 371 427 26,000  Level Cleveland Center
Wed 05:51:06 PM 42.9594 -83.8853 262° West 370 426 26,000  Level Cleveland Center
Wed 05:52:08 PM 42.9453 -84.0203 262° West 365 420 26,000  Level Cleveland Center
Wed 05:53:10 PM 42.9297 -84.1575 261° West 367 422 26,000  Level Cleveland Center
Wed 05:54:12 PM 42.9158 -84.2933 262° West 366 421 26,000  Level Cleveland Center
Wed 05:55:09 PM 42.9033 -84.4125 262° West 362 417 26,000  Level Chicago Center
Wed 05:56:10 PM 42.9206 -84.5742 278° West 360 414 26,000  Level Chicago Center
Wed 05:57:12 PM 42.8947 -84.7061 255° West 361 415 26,000  Level Chicago Center
Wed 05:58:14 PM 42.8664 -84.8386 254° West 362 417 26,000  Level Chicago Center
Wed 06:03:10 PM 42.7870 -85.4620 254° West 100 115 26,000  Level FlightAware ADS-B
Wed 06:04:00 PM 42.7830 -85.4880 258° West 100 115 26,000  Level FlightAware ADS-B
Wed 06:04:49 PM 42.7780 -85.5140 255° West 100 115 26,000  Level FlightAware ADS-B
Wed 06:05:23 PM 42.7750 -85.5320 257° West 100 115 26,000  Level FlightAware ADS-B
Wed 06:05:47 PM 42.7730 -85.5440 257° West 100 115 26,000 -529 Level FlightAware ADS-B
Wed 06:06:31 PM 42.7131 -85.9081 257° West 350 403 25,400 -1,585 Descending Chicago Center
Wed 06:07:33 PM 42.6889 -86.0367 256° West 348 400 23,200 -1,886 Descending Chicago Center
Wed 06:13:15 PM 42.5690 -86.7060 256° West 325 374 12,700 -1,820 Descending FlightAware ADS-B
Wed 06:14:12 PM 42.5510 -86.8140 257° West 316 364 11,100 -1,605 Descending FlightAware ADS-B
Wed 06:14:41 PM 42.5420 -86.8700 258° West 307 353 10,400 -438 Descending FlightAware ADS-B
Wed 06:15:48 PM 42.5250 -86.9780 258° West 307 353 10,400 -319 Level FlightAware ADS-B
Wed 06:16:15 PM 42.5170 -87.0440 261° West 307 353 9,900 -566 Descending FlightAware ADS-B
Wed 06:16:41 PM 42.5110 -87.0860 259° West 307 353 9,900 -360 Level FlightAware ADS-B
Wed 06:17:05 PM 42.4990 -87.1260 248° West 277 319 9,600 -612 Descending FlightAware ADS-B
Wed 06:17:30 PM 42.4880 -87.1670 250° West 277 319 9,400 -448 Descending FlightAware ADS-B
Wed 06:18:12 PM 42.4560 -87.2070 223° Southwest 277 319 9,100 -369 Descending FlightAware ADS-B
Wed 06:18:35 PM 42.4200 -87.2120 186° South 243 280 9,000 -182 Descending FlightAware ADS-B
Wed 06:18:45 PM 42.4110 -87.2120 180° South 307 353 9,000  Level FlightAware ADS-B
Wed 06:19:40 PM 42.3410 -87.2180 184° South 270 311 9,000  Level FlightAware ADS-B
Wed 06:20:00 PM 42.3140 -87.2210 185° South 290 334 9,000 -150 Level FlightAware ADS-B
Wed 06:20:20 PM 42.2880 -87.2240 185° South 275 316 8,900 -600 Descending FlightAware ADS-B
Wed 06:20:40 PM 42.2650 -87.2290 189° South 257 296 8,600 -305 Descending FlightAware ADS-B
Wed 06:21:19 PM 42.2270 -87.2410 193° South 257 296 8,600  Level FlightAware ADS-B
Wed 06:21:43 PM 42.2030 -87.2490 194° South 257 296 8,600  Level FlightAware ADS-B
Wed 06:22:19 PM 42.1680 -87.2600 193° South 257 296 8,600  Level FlightAware ADS-B
Wed 06:22:31 PM 42.1560 -87.2640 194° South 257 296 8,600 -1,811 Level FlightAware ADS-B
Wed 06:23:12 PM 42.0860 -87.2880 194° South 257 296 7,000 -589 Descending FlightAware ADS-B
Wed 06:26:15 PM 41.9830 -87.5030 237° Southwest 257 296 6,400 -325 Descending FlightAware ADS-B
Wed 06:26:35 PM 41.9830 -87.5350 270° West 257 296 5,900 -1,200 Descending FlightAware ADS-B
Wed 06:27:00 PM 41.9830 -87.5680 270° West 224 258 5,500 -618 Descending FlightAware ADS-B
Wed 06:27:43 PM 41.9830 -87.6180 270° West 228 262 5,200 -1,200 Descending FlightAware ADS-B
Wed 06:29:20 PM 41.9840 -87.7460 271° West 228 262 2,700 -1,200 Descending FlightAware ADS-B
Wed 06:29:48 PM 41.9840 -87.7800 270° West 228 262 2,700 -1,017 Level FlightAware ADS-B
Wed 06:30:19 PM 41.9844 -87.8225 270° West 186 214 1,700 -1,452 Descending Chicago Center
Wed 06:30:50 PM 41.9833 -87.8500 267° West 137 158 1,200 -968 Descending Chicago TRACON
Wed 06:33:00 PM 41.9667 -87.9000 206° Southwest  Level FlightAware Approximate

Login

Don't have an account? Register now (free) for customized features, flight alerts, and more!